createdAt,value
2023-04-08T00:01:21.480Z,102173.22
2023-04-08T00:03:49.780Z,102174.81
2023-04-08T00:06:19.835Z,102175.94
2023-04-08T00:08:48.142Z,102182.13
2023-04-08T00:11:16.505Z,102169.72
2023-04-08T00:13:44.763Z,102181.34
2023-04-08T00:16:12.954Z,102178.94
2023-04-08T00:18:41.391Z,102179.72
2023-04-08T00:21:09.610Z,102173.53
2023-04-08T00:23:39.385Z,102185.13
2023-04-08T00:26:07.628Z,102182.41
2023-04-08T00:28:36.396Z,102179.72
2023-04-08T00:31:04.641Z,102181.97
2023-04-08T00:33:33.745Z,102194.34
2023-04-08T00:36:02.014Z,102185.75
2023-04-08T00:38:30.883Z,102189.09
2023-04-08T00:41:00.509Z,102188.25
2023-04-08T00:43:28.704Z,102189.38
2023-04-08T00:45:56.999Z,102192.38
2023-04-08T00:48:25.310Z,102199.69
2023-04-08T00:50:53.870Z,102201.63
2023-04-08T00:53:22.977Z,102194.63
2023-04-08T00:55:52.436Z,102201.63
2023-04-08T00:58:22.009Z,102195.44
2023-04-08T01:00:57.520Z,102200.84
2023-04-08T01:03:37.851Z,102200.03
2023-04-08T01:06:14.910Z,102198.94
2023-04-08T01:08:44.830Z,102195.75
2023-04-08T01:11:15.091Z,102201.94
2023-04-08T01:13:46.921Z,102203.84
2023-04-08T01:16:17.979Z,102198.44
2023-04-08T01:18:47.939Z,102203.84
2023-04-08T01:21:17.811Z,102209.25
2023-04-08T01:24:02.217Z,102204.94
2023-04-08T01:26:32.831Z,102201.44
2023-04-08T01:29:04.111Z,102195.84
2023-04-08T01:31:33.725Z,102202.84
2023-04-08T01:34:04.706Z,102201.25
2023-04-08T01:36:35.672Z,102195.84
2023-04-08T01:39:05.650Z,102205.06
2023-04-08T01:41:37.400Z,102206.66
2023-04-08T01:44:06.993Z,102202.06
2023-04-08T01:46:36.202Z,102213.66
2023-04-08T01:49:05.284Z,102205.56
2023-04-08T01:51:34.362Z,102212.84
2023-04-08T01:54:02.605Z,102206.66
2023-04-08T01:56:37.332Z,102213.66
2023-04-08T01:59:09.952Z,102222.88
2023-04-08T02:01:39.167Z,102214.47
2023-04-08T02:04:07.855Z,102209.84
2023-04-08T02:06:36.883Z,102213.34
2023-04-08T02:09:05.778Z,102220.06
2023-04-08T02:11:35.548Z,102218.44
2023-04-08T02:14:03.923Z,102213.84
2023-04-08T02:16:40.408Z,102216.53
2023-04-08T02:19:14.348Z,102229.25
2023-04-08T02:21:50.270Z,102218.75
2023-04-08T02:24:22.374Z,102209.06
2023-04-08T02:26:54.683Z,102220.06
2023-04-08T02:29:23.709Z,102216.03
2023-04-08T02:31:53.599Z,102220.34
2023-04-08T02:34:23.541Z,102218.75
2023-04-08T02:36:53.109Z,102218.16
2023-04-08T02:39:21.477Z,102216.53
2023-04-08T02:41:50.999Z,102232.47
2023-04-08T02:44:19.304Z,102224.34
2023-04-08T02:46:47.744Z,102221.66
2023-04-08T02:49:15.944Z,102232.47
2023-04-08T02:51:44.145Z,102226.72
2023-04-08T02:54:12.364Z,102225.97
2023-04-08T02:56:40.544Z,102223.25
2023-04-08T02:59:10.132Z,102235.63
2023-04-08T03:01:38.555Z,102222.13
2023-04-08T03:04:07.065Z,102227.50
2023-04-08T03:06:35.283Z,102227.50
2023-04-08T03:09:03.561Z,102227.50
2023-04-08T03:11:31.730Z,102231.81
2023-04-08T03:14:00.305Z,102223.72
2023-04-08T03:16:30.324Z,102226.94
2023-04-08T03:18:58.590Z,102217.19
2023-04-08T03:21:27.043Z,102228.00
2023-04-08T03:23:55.281Z,102221.00
2023-04-08T03:26:23.500Z,102214.81
2023-04-08T03:28:51.829Z,102212.44
2023-04-08T03:31:21.309Z,102213.22
2023-04-08T03:33:51.160Z,102223.25
2023-04-08T03:36:19.898Z,102221.31
2023-04-08T03:38:48.336Z,102224.81
2023-04-08T03:41:16.729Z,102223.25
2023-04-08T03:43:45.813Z,102222.44
2023-04-08T03:46:14.843Z,102226.25
2023-04-08T03:48:43.124Z,102235.16
2023-04-08T03:51:12.733Z,102235.44
2023-04-08T03:53:40.918Z,102236.06
2023-04-08T03:56:09.537Z,102234.47
2023-04-08T03:58:37.829Z,102246.09
2023-04-08T04:01:06.540Z,102246.09
2023-04-08T04:03:34.861Z,102246.09
2023-04-08T04:06:03.132Z,102250.38
2023-04-08T04:08:32.748Z,102246.88
2023-04-08T04:11:01.142Z,102253.06
2023-04-08T04:13:29.353Z,102250.38
2023-04-08T04:15:57.965Z,102250.06
2023-04-08T04:18:26.396Z,102249.28
2023-04-08T04:20:54.615Z,102261.69
2023-04-08T04:23:24.497Z,102254.38
2023-04-08T04:25:54.296Z,102251.66
2023-04-08T04:28:23.154Z,102258.69
2023-04-08T04:30:51.323Z,102264.38
2023-04-08T04:33:19.567Z,102267.06
2023-04-08T04:35:47.818Z,102263.28
2023-04-08T04:38:16.231Z,102269.50
2023-04-08T04:40:45.041Z,102267.88
2023-04-08T04:43:14.705Z,102269.50
2023-04-08T04:45:42.885Z,102278.41
2023-04-08T04:48:11.173Z,102275.69
2023-04-08T04:50:39.362Z,102278.41
2023-04-08T04:53:07.581Z,102284.91
2023-04-08T04:55:37.010Z,102281.38
2023-04-08T04:58:06.759Z,102280.59
2023-04-08T05:00:36.389Z,102279.31
2023-04-08T05:03:04.755Z,102282.31
2023-04-08T05:05:32.984Z,102284.22
2023-04-08T05:08:01.432Z,102296.63
2023-04-08T05:10:29.766Z,102293.13
2023-04-08T05:12:57.982Z,102295.50
2023-04-08T05:15:26.246Z,102298.22
2023-04-08T05:17:55.914Z,102292.81
2023-04-08T05:20:24.208Z,102304.72
2023-04-08T05:22:52.394Z,102303.94
2023-04-08T05:25:20.901Z,102310.75
2023-04-08T05:27:49.153Z,102321.72
2023-04-08T05:30:17.372Z,102317.63
2023-04-08T05:32:45.794Z,102317.94
2023-04-08T05:35:15.435Z,102313.00
2023-04-08T05:37:43.651Z,102320.31
2023-04-08T05:40:12.558Z,102325.72
2023-04-08T05:42:42.404Z,102320.31
2023-04-08T05:45:11.757Z,102328.94
2023-04-08T05:47:40.030Z,102323.81
2023-04-08T05:50:10.060Z,102325.72
2023-04-08T05:52:43.685Z,102331.13
2023-04-08T05:55:12.361Z,102333.34
2023-04-08T05:57:41.166Z,102339.53
2023-04-08T06:00:12.070Z,102338.75
2023-04-08T06:02:40.551Z,102347.66
2023-04-08T06:05:09.973Z,102337.94
2023-04-08T06:07:39.503Z,102340.66
2023-04-08T06:10:09.666Z,102345.75
2023-04-08T06:12:38.736Z,102343.84
2023-04-08T06:15:09.165Z,102348.13
2023-04-08T06:17:38.670Z,102345.16
2023-04-08T06:20:09.256Z,102355.66
2023-04-08T06:22:38.893Z,102356.91
2023-04-08T06:25:08.027Z,102352.31
2023-04-08T06:27:36.346Z,102357.72
2023-04-08T06:30:05.028Z,102362.31
2023-04-08T06:32:33.594Z,102364.75
2023-04-08T06:35:01.958Z,102367.16
2023-04-08T06:37:30.206Z,102373.84
2023-04-08T06:40:00.116Z,102376.72
2023-04-08T06:42:28.768Z,102374.50
2023-04-08T06:44:56.998Z,102386.91
2023-04-08T06:47:25.451Z,102380.13
2023-04-08T06:49:54.405Z,102375.78
2023-04-08T06:52:22.939Z,102382.81
2023-04-08T06:54:51.228Z,102383.63
2023-04-08T06:57:20.796Z,102386.78
2023-04-08T06:59:49.110Z,102400.00
2023-04-08T07:02:17.624Z,102392.69
2023-04-08T07:04:46.988Z,102392.41
2023-04-08T07:07:15.372Z,102402.13
2023-04-08T07:09:45.919Z,102406.88
2023-04-08T07:12:14.341Z,102400.88
2023-04-08T07:14:44.023Z,102408.38
2023-04-08T07:17:12.365Z,102411.25
2023-04-08T07:19:41.109Z,102419.06
2023-04-08T07:22:09.352Z,102414.66
2023-04-08T07:24:37.790Z,102410.84
2023-04-08T07:27:06.310Z,102416.41
2023-04-08T07:29:34.522Z,102423.63
2023-04-08T07:32:04.057Z,102421.38
2023-04-08T07:34:32.324Z,102420.00
2023-04-08T07:37:00.590Z,102423.19
2023-04-08T07:39:29.350Z,102420.97
2023-04-08T07:41:59.861Z,102419.38
2023-04-08T07:44:28.155Z,102426.56
2023-04-08T07:46:56.330Z,102424.34
2023-04-08T07:49:26.092Z,102425.78
2023-04-08T07:51:54.366Z,102437.13
2023-04-08T07:54:22.671Z,102433.63
2023-04-08T07:56:50.944Z,102447.66
2023-04-08T07:59:19.658Z,102425.34
2023-04-08T08:01:47.952Z,102446.41
2023-04-08T08:04:16.361Z,102450.38
2023-04-08T08:06:46.017Z,102439.44
2023-04-08T08:09:14.619Z,102438.19
2023-04-08T08:11:42.866Z,102442.16
2023-04-08T08:14:11.795Z,102454.00
2023-04-08T08:16:40.442Z,102450.34
2023-04-08T08:19:08.870Z,102445.88
2023-04-08T08:21:39.393Z,102451.50
2023-04-08T08:24:09.191Z,102459.16
2023-04-08T08:26:37.871Z,102465.38
2023-04-08T08:29:08.781Z,102462.97
2023-04-08T08:31:37.823Z,102459.47
2023-04-08T08:34:06.088Z,102465.69
2023-04-08T08:36:34.978Z,102472.69
2023-04-08T08:39:03.367Z,102472.59
2023-04-08T08:41:36.612Z,102475.66
2023-04-08T08:44:07.946Z,102479.81
2023-04-08T08:46:36.311Z,102477.56
2023-04-08T08:49:04.674Z,102476.94
2023-04-08T08:51:33.851Z,102476.31
2023-04-08T08:54:04.797Z,102469.16
2023-04-08T08:56:35.868Z,102485.09
2023-04-08T08:59:03.906Z,102485.91
2023-04-08T09:01:37.553Z,102487.50
2023-04-08T09:04:12.611Z,102491.00
2023-04-08T09:06:41.551Z,102492.75
2023-04-08T09:09:11.397Z,102492.09
2023-04-08T09:11:43.137Z,102498.91
2023-04-08T09:14:22.558Z,102499.25
2023-04-08T09:16:51.700Z,102498.44
2023-04-08T09:19:20.467Z,102504.66
2023-04-08T09:22:06.984Z,102500.47
2023-04-08T09:24:35.719Z,102512.56
2023-04-08T09:27:05.756Z,102513.81
2023-04-08T09:29:37.322Z,102520.34
2023-04-08T09:32:07.525Z,102522.06
2023-04-08T09:34:35.811Z,102518.97
2023-04-08T09:37:04.048Z,102523.44
2023-04-08T09:39:32.877Z,102521.34
2023-04-08T09:42:05.596Z,102514.34
2023-04-08T09:44:37.146Z,102518.16
2023-04-08T09:47:14.064Z,102512.75
2023-04-08T09:49:50.138Z,102519.75
2023-04-08T09:52:26.300Z,102513.22
2023-04-08T09:55:01.156Z,102514.53
2023-04-08T09:57:41.678Z,102508.16
2023-04-08T10:00:14.434Z,102508.16
2023-04-08T10:02:51.136Z,102518.56
2023-04-08T10:05:21.185Z,102517.13
2023-04-08T10:07:51.865Z,102522.91
2023-04-08T10:10:21.136Z,102505.44
2023-04-08T10:12:51.331Z,102506.13
2023-04-08T10:15:30.588Z,102515.56
2023-04-08T10:18:34.400Z,102516.53
2023-04-08T10:21:03.614Z,102510.50
2023-04-08T10:23:59.343Z,102503.34
2023-04-08T10:26:37.447Z,102512.59
2023-04-08T10:29:35.137Z,102510.03
2023-04-08T10:32:03.463Z,102512.75
2023-04-08T10:34:31.710Z,102517.53
2023-04-08T10:37:03.784Z,102515.00
2023-04-08T10:39:33.066Z,102516.75
2023-04-08T10:42:04.237Z,102509.41
2023-04-08T10:44:32.566Z,102515.34
2023-04-08T10:47:02.214Z,102513.44
2023-04-08T10:49:35.655Z,102516.59
2023-04-08T10:52:09.918Z,102509.13
2023-04-08T10:54:40.605Z,102507.56
2023-04-08T10:57:08.985Z,102507.69
2023-04-08T10:59:37.528Z,102501.94
2023-04-08T11:02:07.350Z,102502.78
2023-04-08T11:04:35.747Z,102506.47
2023-04-08T11:07:08.142Z,102495.41
2023-04-08T11:09:36.566Z,102494.81
2023-04-08T11:12:05.857Z,102501.47
2023-04-08T11:14:34.311Z,102491.00
2023-04-08T11:17:02.614Z,102490.81
2023-04-08T11:19:32.446Z,102499.84
2023-04-08T11:22:01.278Z,102500.22
2023-04-08T11:24:29.793Z,102498.47
2023-04-08T11:26:58.191Z,102491.88
2023-04-08T11:29:26.475Z,102484.28
2023-04-08T11:31:54.907Z,102497.22
2023-04-08T11:34:26.673Z,102490.88
2023-04-08T11:36:58.704Z,102484.72
2023-04-08T11:39:27.284Z,102491.19
2023-04-08T11:41:55.661Z,102484.50
2023-04-08T11:44:33.090Z,102479.06
2023-04-08T11:47:02.284Z,102493.13
2023-04-08T11:49:45.706Z,102484.03
2023-04-08T11:52:15.536Z,102491.97
2023-04-08T11:54:44.611Z,102486.75
2023-04-08T11:57:13.183Z,102490.16
2023-04-08T11:59:41.602Z,102489.50
2023-04-08T12:02:10.580Z,102489.97
2023-04-08T12:04:39.388Z,102488.84
2023-04-08T12:07:07.953Z,102495.41
2023-04-08T12:09:37.565Z,102492.03
2023-04-08T12:12:06.091Z,102487.94
2023-04-08T12:14:34.397Z,102483.16
2023-04-08T12:17:02.722Z,102484.66
2023-04-08T12:19:32.314Z,102485.31
2023-04-08T12:22:02.327Z,102485.63
2023-04-08T12:24:30.773Z,102484.53
2023-04-08T12:27:01.940Z,102484.06
2023-04-08T12:29:30.186Z,102477.25
2023-04-08T12:31:58.605Z,102476.69
2023-04-08T12:34:26.986Z,102478.72
2023-04-08T12:36:55.596Z,102478.16
2023-04-08T12:39:24.009Z,102476.00
2023-04-08T12:41:52.402Z,102471.81
2023-04-08T12:44:22.263Z,102467.72
2023-04-08T12:46:50.620Z,102471.78
2023-04-08T12:49:18.894Z,102474.56
2023-04-08T12:51:47.283Z,102482.47
2023-04-08T12:54:15.549Z,102485.41
2023-04-08T12:56:45.672Z,102486.13
2023-04-08T12:59:14.029Z,102478.50
2023-04-08T13:01:43.926Z,102483.97
2023-04-08T13:04:12.366Z,102483.72
2023-04-08T13:06:40.842Z,102482.66
2023-04-08T13:09:09.156Z,102490.59
2023-04-08T13:11:37.475Z,102477.84
2023-04-08T13:14:05.752Z,102475.97
2023-04-08T13:16:34.087Z,102482.44
2023-04-08T13:19:03.734Z,102476.03
2023-04-08T13:21:32.312Z,102473.69
2023-04-08T13:24:00.568Z,102471.59
2023-04-08T13:26:28.903Z,102469.03
2023-04-08T13:28:58.432Z,102474.91
2023-04-08T13:31:27.230Z,102476.03
2023-04-08T13:33:57.831Z,102473.69
2023-04-08T13:36:28.476Z,102471.75
2023-04-08T13:38:56.967Z,102469.03
2023-04-08T13:41:26.198Z,102468.25
2023-04-08T13:43:54.417Z,102470.97
2023-04-08T13:46:22.722Z,102471.41
2023-04-08T13:48:51.339Z,102470.44
2023-04-08T13:51:19.840Z,102468.31
2023-04-08T13:53:49.460Z,102473.53
2023-04-08T13:56:17.701Z,102459.72
2023-04-08T13:58:52.292Z,102467.69
2023-04-08T14:01:24.966Z,102458.88
2023-04-08T14:03:53.314Z,102461.38
2023-04-08T14:06:21.550Z,102460.72
2023-04-08T14:08:51.483Z,102466.75
2023-04-08T14:11:20.007Z,102469.59
2023-04-08T14:13:48.302Z,102458.84
2023-04-08T14:16:16.778Z,102453.84
2023-04-08T14:18:45.095Z,102459.78
2023-04-08T14:21:14.306Z,102443.75
2023-04-08T14:23:42.791Z,102454.63
2023-04-08T14:26:12.632Z,102445.34
2023-04-08T14:28:41.043Z,102455.13
2023-04-08T14:31:09.265Z,102439.09
2023-04-08T14:33:39.124Z,102440.59
2023-04-08T14:36:08.166Z,102450.22
2023-04-08T14:38:36.694Z,102442.38
2023-04-08T14:41:05.002Z,102446.91
2023-04-08T14:43:34.690Z,102450.44
2023-04-08T14:46:03.037Z,102448.34
2023-04-08T14:48:31.429Z,102446.34
2023-04-08T14:51:00.089Z,102450.97
2023-04-08T14:53:28.425Z,102442.31
2023-04-08T14:55:56.712Z,102445.38
2023-04-08T14:58:25.184Z,102447.66
2023-04-08T15:00:55.735Z,102446.06
2023-04-08T15:03:24.213Z,102454.88
2023-04-08T15:05:52.527Z,102455.06
2023-04-08T15:08:20.789Z,102460.09
2023-04-08T15:10:49.132Z,102452.69
2023-04-08T15:13:17.348Z,102458.13
2023-04-08T15:15:45.709Z,102458.91
2023-04-08T15:18:15.561Z,102448.53
2023-04-08T15:20:44.155Z,102453.47
2023-04-08T15:23:12.354Z,102447.25
2023-04-08T15:25:40.634Z,102449.53
2023-04-08T15:28:09.341Z,102451.78
2023-04-08T15:30:37.621Z,102461.06
2023-04-08T15:33:06.362Z,102463.34
2023-04-08T15:35:36.201Z,102458.56
2023-04-08T15:38:04.512Z,102452.63
2023-04-08T15:40:34.881Z,102451.06
2023-04-08T15:43:04.112Z,102452.63
2023-04-08T15:45:33.456Z,102453.31
2023-04-08T15:48:01.755Z,102442.78
2023-04-08T15:50:31.404Z,102440.34
2023-04-08T15:53:01.108Z,102439.13
2023-04-08T15:55:29.297Z,102431.59
2023-04-08T15:57:58.225Z,102436.25
2023-04-08T16:00:27.349Z,102430.00
2023-04-08T16:02:55.716Z,102431.59
2023-04-08T16:05:24.018Z,102436.41
2023-04-08T16:07:52.553Z,102435.72
2023-04-08T16:10:22.209Z,102432.78
2023-04-08T16:12:51.521Z,102434.56
2023-04-08T16:15:19.977Z,102426.81
2023-04-08T16:17:52.681Z,102435.78
2023-04-08T16:20:21.916Z,102443.63
2023-04-08T16:22:51.194Z,102444.44
2023-04-08T16:25:21.068Z,102442.81
2023-04-08T16:27:49.422Z,102440.41
2023-04-08T16:30:17.677Z,102443.84
2023-04-08T16:32:46.130Z,102442.53
2023-04-08T16:35:14.597Z,102447.56
2023-04-08T16:37:42.863Z,102444.66
2023-04-08T16:40:12.524Z,102448.09
2023-04-08T16:42:42.538Z,102454.19
2023-04-08T16:45:12.102Z,102452.56
2023-04-08T16:47:41.746Z,102454.84
2023-04-08T16:50:11.012Z,102446.22
2023-04-08T16:52:39.290Z,102443.81
2023-04-08T16:55:09.219Z,102449.94
2023-04-08T16:57:37.426Z,102445.94
2023-04-08T17:00:09.119Z,102449.31
2023-04-08T17:02:37.599Z,102452.38
2023-04-08T17:05:06.806Z,102449.50
2023-04-08T17:07:35.146Z,102447.47
2023-04-08T17:10:03.536Z,102448.59
2023-04-08T17:12:32.490Z,102452.44
2023-04-08T17:15:01.027Z,102444.91
2023-04-08T17:17:30.968Z,102452.91
2023-04-08T17:19:59.644Z,102455.97
2023-04-08T17:22:28.038Z,102452.03
2023-04-08T17:24:56.386Z,102453.44
2023-04-08T17:27:24.856Z,102453.44
2023-04-08T17:29:57.680Z,102459.53
2023-04-08T17:32:26.221Z,102463.41
2023-04-08T17:34:56.328Z,102467.53
2023-04-08T17:37:24.600Z,102462.44
2023-04-08T17:39:52.877Z,102466.28
2023-04-08T17:42:22.822Z,102462.63
2023-04-08T17:44:51.131Z,102462.16
2023-04-08T17:47:21.082Z,102476.84
2023-04-08T17:49:49.434Z,102468.28
2023-04-08T17:52:19.021Z,102470.50
2023-04-08T17:54:47.247Z,102474.66
2023-04-08T17:57:15.494Z,102469.88
2023-04-08T17:59:43.725Z,102474.84
2023-04-08T18:02:13.514Z,102475.63
2023-04-08T18:04:42.432Z,102474.03
2023-04-08T18:07:10.758Z,102479.47
2023-04-08T18:09:40.897Z,102475.94
2023-04-08T18:12:09.137Z,102474.69
2023-04-08T18:14:37.385Z,102475.81
2023-04-08T18:17:05.978Z,102471.81
2023-04-08T18:19:34.353Z,102475.34
2023-04-08T18:22:02.657Z,102478.38
2023-04-08T18:24:31.125Z,102478.69
2023-04-08T18:27:04.290Z,102476.63
2023-04-08T18:29:33.208Z,102472.34
2023-04-08T18:32:01.615Z,102481.13
2023-04-08T18:34:31.948Z,102477.28
2023-04-08T18:37:00.913Z,102480.31
2023-04-08T18:39:29.224Z,102483.03
2023-04-08T18:41:57.593Z,102493.09
2023-04-08T18:44:27.225Z,102494.69
2023-04-08T18:46:57.481Z,102495.03
2023-04-08T18:49:25.977Z,102497.25
2023-04-08T18:52:02.560Z,102494.06
2023-04-08T18:54:31.940Z,102492.81
2023-04-08T18:57:00.456Z,102500.94
2023-04-08T18:59:30.217Z,102499.34
2023-04-08T19:01:58.838Z,102500.81
2023-04-08T19:04:27.464Z,102509.25
2023-04-08T19:06:56.385Z,102511.50
2023-04-08T19:09:24.661Z,102514.22
2023-04-08T19:11:52.907Z,102501.78
2023-04-08T19:14:21.194Z,102512.63
2023-04-08T19:16:50.949Z,102520.78
2023-04-08T19:19:19.358Z,102524.28
2023-04-08T19:21:48.810Z,102521.91
2023-04-08T19:24:17.124Z,102529.25
2023-04-08T19:26:45.795Z,102530.66
2023-04-08T19:29:14.050Z,102532.13
2023-04-08T19:31:42.420Z,102532.91
2023-04-08T19:34:12.166Z,102528.91
2023-04-08T19:36:40.503Z,102531.94
2023-04-08T19:39:08.745Z,102528.78
2023-04-08T19:41:37.003Z,102534.81
2023-04-08T19:44:05.537Z,102530.06
2023-04-08T19:46:34.067Z,102532.28
2023-04-08T19:49:02.471Z,102535.31
2023-04-08T19:51:32.814Z,102539.44
2023-04-08T19:54:01.080Z,102538.66
2023-04-08T19:56:32.541Z,102533.59
2023-04-08T19:59:02.123Z,102530.34
2023-04-08T20:01:30.860Z,102538.03
2023-04-08T20:03:59.213Z,102536.44
2023-04-08T20:06:28.429Z,102534.84
2023-04-08T20:09:05.144Z,102534.66
2023-04-08T20:11:33.513Z,102544.25
2023-04-08T20:14:02.027Z,102539.16
2023-04-08T20:16:30.429Z,102539.63
2023-04-08T20:18:58.666Z,102547.28
2023-04-08T20:21:26.950Z,102541.06
2023-04-08T20:23:55.634Z,102535.94
2023-04-08T20:26:25.277Z,102543.28
2023-04-08T20:28:56.304Z,102544.09
2023-04-08T20:31:26.775Z,102538.19
2023-04-08T20:33:55.516Z,102538.50
2023-04-08T20:36:24.773Z,102545.84
2023-04-08T20:38:53.461Z,102536.88
2023-04-08T20:41:25.922Z,102536.13
2023-04-08T20:43:55.411Z,102537.22
2023-04-08T20:46:24.542Z,102529.41
2023-04-08T20:48:53.647Z,102528.28
2023-04-08T20:51:22.101Z,102528.59
2023-04-08T20:53:50.817Z,102533.25
2023-04-08T20:56:19.074Z,102530.53
2023-04-08T20:58:48.720Z,102526.22
2023-04-08T21:01:17.044Z,102520.78
2023-04-08T21:03:45.416Z,102515.66
2023-04-08T21:06:18.261Z,102516.00
2023-04-08T21:08:46.822Z,102515.53
2023-04-08T21:11:16.839Z,102510.44
2023-04-08T21:13:47.391Z,102514.53
2023-04-08T21:16:18.822Z,102518.41
2023-04-08T21:18:47.106Z,102526.53
2023-04-08T21:21:15.464Z,102514.88
2023-04-08T21:23:43.731Z,102512.50
2023-04-08T21:26:13.373Z,102520.91
2023-04-08T21:28:41.812Z,102520.13
2023-04-08T21:31:10.768Z,102519.63
2023-04-08T21:33:41.003Z,102512.31
2023-04-08T21:36:09.314Z,102520.78
2023-04-08T21:38:37.615Z,102517.28
2023-04-08T21:41:06.042Z,102521.38
2023-04-08T21:43:34.241Z,102520.59
2023-04-08T21:46:02.491Z,102517.41
2023-04-08T21:48:30.756Z,102519.78
2023-04-08T21:51:00.998Z,102519.31
2023-04-08T21:53:29.248Z,102522.03
2023-04-08T21:55:57.556Z,102525.84
2023-04-08T21:58:26.280Z,102527.00
2023-04-08T22:00:54.530Z,102523.50
2023-04-08T22:03:22.910Z,102528.91
2023-04-08T22:05:51.495Z,102519.94
2023-04-08T22:08:21.152Z,102518.34
2023-04-08T22:10:49.447Z,102521.88
2023-04-08T22:13:18.849Z,102517.88
2023-04-08T22:15:47.122Z,102524.88
2023-04-08T22:18:15.565Z,102522.50
2023-04-08T22:20:43.934Z,102525.22
2023-04-08T22:23:12.238Z,102525.22
2023-04-08T22:25:41.788Z,102540.69
2023-04-08T22:28:10.027Z,102531.75
2023-04-08T22:30:38.706Z,102528.56
2023-04-08T22:33:06.966Z,102526.66
2023-04-08T22:35:36.254Z,102528.56
2023-04-08T22:38:04.712Z,102523.97
2023-04-08T22:40:33.010Z,102518.81
2023-04-08T22:43:02.605Z,102528.06
2023-04-08T22:45:30.853Z,102526.97
2023-04-08T22:47:59.760Z,102520.75
2023-04-08T22:50:28.013Z,102515.31
2023-04-08T22:52:56.269Z,102519.13
2023-04-08T22:55:24.489Z,102524.56
2023-04-08T22:57:52.748Z,102523.75
2023-04-08T23:00:22.743Z,102522.97
2023-04-08T23:02:51.132Z,102524.06
2023-04-08T23:05:20.123Z,102514.34
2023-04-08T23:07:48.351Z,102523.59
2023-04-08T23:10:16.673Z,102507.34
2023-04-08T23:12:44.871Z,102521.19
2023-04-08T23:15:13.398Z,102520.41
2023-04-08T23:17:43.053Z,102519.28
2023-04-08T23:20:12.457Z,102523.13
2023-04-08T23:22:40.743Z,102520.41
2023-04-08T23:25:10.942Z,102516.91
2023-04-08T23:27:39.155Z,102523.44
2023-04-08T23:30:09.240Z,102522.63
2023-04-08T23:32:37.530Z,102522.63
2023-04-08T23:35:10.035Z,102522.63
2023-04-08T23:37:38.284Z,102522.63
2023-04-08T23:40:08.824Z,102528.06
2023-04-08T23:42:37.045Z,102528.06
2023-04-08T23:45:06.750Z,102526.47
2023-04-08T23:47:34.983Z,102526.47
2023-04-08T23:50:03.308Z,102527.53
2023-04-08T23:52:32.922Z,102529.44
2023-04-08T23:55:01.382Z,102525.94
2023-04-08T23:57:29.633Z,102525.16
2023-04-08T23:59:58.827Z,102534.41
